createdAt,value
2017-09-04T00:00:42.475Z,11.8
2017-09-04T00:01:44.518Z,11.7
2017-09-04T00:02:46.663Z,11.8
2017-09-04T00:03:48.751Z,11.6
2017-09-04T00:04:51.196Z,11.3
2017-09-04T00:05:53.266Z,11.7
2017-09-04T00:06:55.388Z,11.9
2017-09-04T00:07:57.447Z,11.9
2017-09-04T00:08:59.614Z,11.8
2017-09-04T00:10:02.038Z,11.8
2017-09-04T00:11:04.109Z,11.8
2017-09-04T00:12:06.202Z,11.8
2017-09-04T00:13:08.262Z,11.8
2017-09-04T00:14:10.371Z,11.8
2017-09-04T00:15:12.846Z,11.8
2017-09-04T00:16:14.975Z,11.8
2017-09-04T00:17:17.040Z,11.8
2017-09-04T00:18:19.177Z,11.7
2017-09-04T00:19:21.281Z,11.7
2017-09-04T00:20:23.747Z,11.7
2017-09-04T00:21:26.203Z,11.7
2017-09-04T00:22:28.301Z,11.8
2017-09-04T00:23:30.376Z,11.7
2017-09-04T00:24:32.516Z,11.8
2017-09-04T00:25:34.933Z,11.7
2017-09-04T00:26:36.994Z,11.6
2017-09-04T00:27:39.131Z,11.5
2017-09-04T00:28:41.278Z,11.7
2017-09-04T00:29:43.412Z,11.8
2017-09-04T00:30:45.963Z,11.7
2017-09-04T00:31:48.047Z,11.6
2017-09-04T00:32:50.121Z,11.7
2017-09-04T00:33:52.198Z,11.8
2017-09-04T00:34:54.388Z,11.7
2017-09-04T00:35:56.799Z,11.7
2017-09-04T00:36:58.953Z,11.6
2017-09-04T00:38:01.032Z,11.5
2017-09-04T00:39:03.085Z,11.6
2017-09-04T00:40:05.232Z,11.7
2017-09-04T00:41:07.643Z,11.7
2017-09-04T00:42:09.746Z,11.7
2017-09-04T00:43:11.859Z,11.8
2017-09-04T00:44:13.953Z,11.6
2017-09-04T00:45:16.026Z,11.4
2017-09-04T00:46:18.431Z,11.4
2017-09-04T00:47:20.557Z,11.5
2017-09-04T00:48:22.652Z,11.6
2017-09-04T00:49:24.752Z,11.6
2017-09-04T00:50:26.785Z,11.5
2017-09-04T00:51:29.203Z,11.6
2017-09-04T00:52:31.385Z,11.6
2017-09-04T00:53:33.575Z,11.4
2017-09-04T00:54:35.743Z,11.5
2017-09-04T00:55:37.853Z,11.5
2017-09-04T00:56:40.298Z,11.4
2017-09-04T00:57:42.381Z,11.4
2017-09-04T00:58:44.464Z,11.2
2017-09-04T00:59:46.566Z,11.1
2017-09-04T01:00:48.671Z,11.2
2017-09-04T01:01:51.040Z,11.2
2017-09-04T01:02:53.274Z,11.2
2017-09-04T01:03:55.377Z,11.2
2017-09-04T01:04:57.457Z,11.1
2017-09-04T01:05:59.543Z,10.9
2017-09-04T01:07:01.912Z,10.6
2017-09-04T01:08:04.080Z,11.1
2017-09-04T01:09:06.170Z,11.1
2017-09-04T01:10:08.251Z,11.1
2017-09-04T01:11:10.371Z,11.1
2017-09-04T01:12:12.849Z,11.1
2017-09-04T01:13:14.922Z,11.2
2017-09-04T01:14:16.997Z,11.3
2017-09-04T01:15:19.101Z,11.4
2017-09-04T01:16:21.248Z,11.4
2017-09-04T01:17:23.611Z,11.4
2017-09-04T01:18:25.674Z,11.4
2017-09-04T01:19:27.781Z,11.3
2017-09-04T01:20:29.883Z,11.3
2017-09-04T01:21:31.992Z,11.3
2017-09-04T01:22:34.402Z,11.4
2017-09-04T01:23:36.530Z,11.4
2017-09-04T01:24:38.664Z,11.4
2017-09-04T01:25:40.721Z,11.4
2017-09-04T01:26:42.778Z,11.6
2017-09-04T01:27:45.239Z,11.7
2017-09-04T01:28:47.413Z,11.5
2017-09-04T01:29:49.515Z,11.4
2017-09-04T01:30:51.633Z,11.4
2017-09-04T01:31:53.731Z,11.4
2017-09-04T01:32:56.176Z,11.4
2017-09-04T01:33:58.272Z,11.4
2017-09-04T01:35:00.358Z,11.5
2017-09-04T01:36:02.457Z,11.4
2017-09-04T01:37:04.534Z,11.4
2017-09-04T01:38:06.925Z,11
2017-09-04T01:39:09.032Z,11
2017-09-04T01:40:11.118Z,11.1
2017-09-04T01:41:13.220Z,11.4
2017-09-04T01:42:15.315Z,11.3
2017-09-04T01:43:17.888Z,11.5
2017-09-04T01:44:19.982Z,11.5
2017-09-04T01:45:22.046Z,11.5
2017-09-04T01:46:24.087Z,11.6
2017-09-04T01:47:26.206Z,11.5
2017-09-04T01:48:28.574Z,11.4
2017-09-04T01:49:30.608Z,11.3
2017-09-04T01:50:32.747Z,11.2
2017-09-04T01:51:34.833Z,11.2
2017-09-04T01:52:36.914Z,11.1
2017-09-04T01:53:39.422Z,11
2017-09-04T01:54:41.563Z,10.9
2017-09-04T01:55:43.706Z,10.9
2017-09-04T01:56:45.793Z,10.9
2017-09-04T01:57:47.944Z,10.9
2017-09-04T01:58:50.425Z,10.8
2017-09-04T01:59:52.582Z,10.6
2017-09-04T02:00:54.725Z,10.6
2017-09-04T02:01:56.859Z,10.8
2017-09-04T02:02:59.010Z,10.7
2017-09-04T02:04:01.491Z,10.6
2017-09-04T02:05:03.557Z,10.6
2017-09-04T02:06:05.662Z,10.5
2017-09-04T02:07:07.696Z,10.6
2017-09-04T02:08:09.783Z,10.6
2017-09-04T02:09:12.247Z,10.6
2017-09-04T02:10:14.265Z,10.6
2017-09-04T02:11:16.361Z,10.6
2017-09-04T02:12:18.444Z,10.6
2017-09-04T02:13:20.516Z,10.6
2017-09-04T02:14:22.847Z,10.5
2017-09-04T02:15:24.915Z,10.5
2017-09-04T02:16:27.116Z,10.6
2017-09-04T02:17:29.230Z,10.6
2017-09-04T02:18:31.292Z,10.7
2017-09-04T02:19:33.621Z,10.6
2017-09-04T02:20:35.726Z,10.7
2017-09-04T02:21:37.845Z,10.8
2017-09-04T02:22:39.957Z,10.8
2017-09-04T02:23:42.412Z,10.6
2017-09-04T02:24:44.803Z,10.6
2017-09-04T02:25:46.844Z,10.6
2017-09-04T02:26:48.933Z,10.6
2017-09-04T02:27:51.010Z,10.5
2017-09-04T02:28:53.128Z,10.6
2017-09-04T02:29:55.511Z,10.4
2017-09-04T02:30:57.590Z,10.3
2017-09-04T02:31:59.709Z,10.3
2017-09-04T02:33:01.859Z,10.3
2017-09-04T02:34:03.959Z,10.2
2017-09-04T02:35:06.420Z,10.2
2017-09-04T02:36:08.479Z,10.4
2017-09-04T02:37:10.524Z,10.3
2017-09-04T02:38:12.588Z,10.2
2017-09-04T02:39:14.691Z,10.2
2017-09-04T02:40:17.185Z,10.2
2017-09-04T02:41:19.242Z,10.3
2017-09-04T02:42:21.358Z,10.2
2017-09-04T02:43:23.404Z,10.1
2017-09-04T02:44:25.528Z,10.2
2017-09-04T02:45:27.919Z,10.2
2017-09-04T02:46:30.043Z,10.3
2017-09-04T02:47:32.162Z,10.3
2017-09-04T02:48:34.211Z,10.4
2017-09-04T02:49:36.318Z,10.3
2017-09-04T02:50:38.799Z,10.4
2017-09-04T02:51:40.889Z,10.3
2017-09-04T02:52:42.939Z,10.3
2017-09-04T02:53:44.988Z,10.2
2017-09-04T02:54:47.136Z,10.2
2017-09-04T02:55:49.597Z,10.2
2017-09-04T02:56:51.652Z,10
2017-09-04T02:57:53.835Z,9.9
2017-09-04T02:58:55.952Z,10
2017-09-04T02:59:58.049Z,9.9
2017-09-04T03:01:00.438Z,10
2017-09-04T03:02:02.487Z,10.1
2017-09-04T03:03:04.625Z,10
2017-09-04T03:04:06.686Z,10.3
2017-09-04T03:05:08.816Z,10.4
2017-09-04T03:06:11.215Z,10.4
2017-09-04T03:07:13.269Z,10.5
2017-09-04T03:08:15.375Z,10.4
2017-09-04T03:09:17.460Z,10.4
2017-09-04T03:10:19.606Z,10.4
2017-09-04T03:11:21.936Z,10.4
2017-09-04T03:12:24.140Z,10.1
2017-09-04T03:13:26.249Z,10.2
2017-09-04T03:14:28.348Z,10.4
2017-09-04T03:15:30.366Z,10.3
2017-09-04T03:16:32.833Z,10.3
2017-09-04T03:17:34.922Z,10.3
2017-09-04T03:18:37.061Z,10.2
2017-09-04T03:19:39.191Z,10.2
2017-09-04T03:20:41.270Z,10.2
2017-09-04T03:21:43.703Z,10.3
2017-09-04T03:22:45.771Z,10.4
2017-09-04T03:23:47.804Z,10.5
2017-09-04T03:24:49.900Z,10.6
2017-09-04T03:25:51.994Z,10.4
2017-09-04T03:26:54.358Z,10.5
2017-09-04T03:27:56.430Z,10.8
2017-09-04T03:28:58.530Z,10.9
2017-09-04T03:30:00.581Z,10.5
2017-09-04T03:31:02.746Z,10.3
2017-09-04T03:32:05.107Z,10.1
2017-09-04T03:33:07.238Z,10
2017-09-04T03:34:09.276Z,9.9
2017-09-04T03:35:11.380Z,9.9
2017-09-04T03:36:13.503Z,9.9
2017-09-04T03:37:15.870Z,10.2
2017-09-04T03:38:17.957Z,10.1
2017-09-04T03:39:20.029Z,10.5
2017-09-04T03:40:22.124Z,10.5
2017-09-04T03:41:24.224Z,10.4
2017-09-04T03:42:26.753Z,10.5
2017-09-04T03:43:28.918Z,10.3
2017-09-04T03:44:31.068Z,10.1
2017-09-04T03:45:33.092Z,10.1
2017-09-04T03:46:35.182Z,9.9
2017-09-04T03:47:37.632Z,10
2017-09-04T03:48:39.720Z,10
2017-09-04T03:49:41.832Z,9.9
2017-09-04T03:50:43.953Z,10
2017-09-04T03:51:46.017Z,10.1
2017-09-04T03:52:48.350Z,10.2
2017-09-04T03:53:50.598Z,10.3
2017-09-04T03:54:52.854Z,10.3
2017-09-04T03:55:54.911Z,10.3
2017-09-04T03:56:56.962Z,10.3
2017-09-04T03:57:59.406Z,10.1
2017-09-04T03:59:01.451Z,10.1
2017-09-04T04:00:03.482Z,10
2017-09-04T04:01:05.582Z,10.1
2017-09-04T04:02:07.690Z,10.1
2017-09-04T04:03:10.109Z,10
2017-09-04T04:04:12.179Z,10
2017-09-04T04:05:14.263Z,10
2017-09-04T04:06:16.367Z,10.1
2017-09-04T04:07:18.513Z,10.1
2017-09-04T04:08:20.856Z,10
2017-09-04T04:09:22.939Z,9.9
2017-09-04T04:10:25.036Z,9.9
2017-09-04T04:11:27.066Z,9.9
2017-09-04T04:12:29.233Z,9.7
2017-09-04T04:13:31.582Z,9.7
2017-09-04T04:14:33.731Z,9.7
2017-09-04T04:15:35.852Z,9.6
2017-09-04T04:16:37.914Z,9.7
2017-09-04T04:17:40.518Z,9.8
2017-09-04T04:18:42.961Z,9.7
2017-09-04T04:19:45.015Z,9.6
2017-09-04T04:20:47.094Z,9.4
2017-09-04T04:21:49.185Z,9.6
2017-09-04T04:22:51.256Z,9.7
2017-09-04T04:23:53.643Z,9.8
2017-09-04T04:24:55.738Z,9.8
2017-09-04T04:25:57.846Z,9.8
2017-09-04T04:26:59.978Z,9.9
2017-09-04T04:28:02.030Z,9.9
2017-09-04T04:29:04.510Z,9.9
2017-09-04T04:30:06.636Z,9.9
2017-09-04T04:31:08.752Z,9.9
2017-09-04T04:32:10.835Z,10
2017-09-04T04:33:12.901Z,10.2
2017-09-04T04:34:15.352Z,10.1
2017-09-04T04:35:17.458Z,10.3
2017-09-04T04:36:19.578Z,10.3
2017-09-04T04:37:21.709Z,10.2
2017-09-04T04:38:23.770Z,10.2
2017-09-04T04:39:26.203Z,10.3
2017-09-04T04:40:28.340Z,10.1
2017-09-04T04:41:30.428Z,10
2017-09-04T04:42:32.473Z,10.1
2017-09-04T04:43:34.545Z,10
2017-09-04T04:44:36.934Z,9.9
2017-09-04T04:45:39.101Z,9.9
2017-09-04T04:46:41.239Z,10
2017-09-04T04:47:43.373Z,9.9
2017-09-04T04:48:45.407Z,10
2017-09-04T04:49:47.819Z,9.9
2017-09-04T04:50:49.964Z,9.9
2017-09-04T04:51:52.029Z,9.9
2017-09-04T04:52:54.144Z,9.8
2017-09-04T04:53:56.266Z,9.6
2017-09-04T04:54:58.684Z,9.7
2017-09-04T04:56:00.798Z,9.6
2017-09-04T04:57:02.864Z,9.6
2017-09-04T04:58:04.953Z,9.7
2017-09-04T04:59:07.054Z,9.9
2017-09-04T05:00:09.452Z,9.9
2017-09-04T05:01:11.556Z,9.9
2017-09-04T05:02:13.680Z,9.9
2017-09-04T05:03:15.799Z,9.9
2017-09-04T05:04:17.910Z,9.9
2017-09-04T05:05:20.325Z,9.9
2017-09-04T05:06:22.380Z,9.8
2017-09-04T05:07:24.458Z,9.7
2017-09-04T05:08:26.570Z,9.9
2017-09-04T05:09:28.657Z,10
2017-09-04T05:10:31.061Z,10
2017-09-04T05:11:33.164Z,9.9
2017-09-04T05:12:35.244Z,9.9
2017-09-04T05:13:37.354Z,9.8
2017-09-04T05:14:39.442Z,9.8
2017-09-04T05:15:41.810Z,9.8
2017-09-04T05:16:43.914Z,9.9
2017-09-04T05:17:45.981Z,10
2017-09-04T05:18:48.123Z,10.1
2017-09-04T05:19:50.217Z,10.2
2017-09-04T05:20:52.688Z,10.3
2017-09-04T05:21:54.819Z,10.4
2017-09-04T05:22:56.969Z,10.5
2017-09-04T05:23:59.024Z,10.6
2017-09-04T05:25:01.132Z,10.8
2017-09-04T05:26:03.618Z,10.9
2017-09-04T05:27:05.683Z,10.9
2017-09-04T05:28:07.778Z,10.9
2017-09-04T05:29:09.853Z,11.1
2017-09-04T05:30:11.954Z,11.1
2017-09-04T05:31:14.380Z,11.5
2017-09-04T05:32:16.460Z,11.7
2017-09-04T05:33:18.650Z,12.1
2017-09-04T05:34:20.744Z,12.2
2017-09-04T05:35:22.829Z,12.4
2017-09-04T05:36:25.309Z,12.5
2017-09-04T05:37:27.481Z,12.2
2017-09-04T05:38:29.556Z,12.7
2017-09-04T05:39:31.846Z,12.8
2017-09-04T05:40:33.996Z,12.6
2017-09-04T05:41:36.516Z,12.7
2017-09-04T05:42:38.680Z,12.7
2017-09-04T05:43:40.728Z,12.7
2017-09-04T05:44:42.832Z,12.8
2017-09-04T05:45:44.958Z,12.6
2017-09-04T05:46:47.349Z,12.6
2017-09-04T05:47:49.429Z,12.7
2017-09-04T05:48:51.482Z,12.8
2017-09-04T05:49:53.766Z,12.6
2017-09-04T05:50:55.888Z,12.5
2017-09-04T05:51:58.416Z,12.5
2017-09-04T05:53:00.518Z,12.5
2017-09-04T05:54:02.619Z,12.7
2017-09-04T05:55:04.726Z,12.7
2017-09-04T05:56:06.813Z,12.6
2017-09-04T05:57:09.213Z,13
2017-09-04T05:58:11.312Z,13
2017-09-04T05:59:13.532Z,13.3
2017-09-04T06:00:15.579Z,13.5
2017-09-04T06:01:17.595Z,13.4
2017-09-04T06:02:20.065Z,13.7
2017-09-04T06:03:22.160Z,13.8
2017-09-04T06:04:24.323Z,14.1
2017-09-04T06:05:26.415Z,14.2
2017-09-04T06:06:29.226Z,14.3
2017-09-04T06:07:31.706Z,14.6
2017-09-04T06:08:33.821Z,15
2017-09-04T06:09:35.904Z,15.1
2017-09-04T06:10:38.048Z,15.1
2017-09-04T06:11:40.361Z,15.1
2017-09-04T06:12:42.762Z,15.5
2017-09-04T06:13:44.836Z,15.8
2017-09-04T06:14:47.030Z,15.3
2017-09-04T06:15:49.052Z,15.6
2017-09-04T06:16:51.146Z,15.9
2017-09-04T06:17:53.814Z,15.9
2017-09-04T06:18:55.895Z,15.5
2017-09-04T06:19:57.983Z,15.6
2017-09-04T06:21:00.126Z,16.2
2017-09-04T06:22:02.193Z,16.1
2017-09-04T06:23:04.520Z,15.9
2017-09-04T06:24:06.660Z,16.3
2017-09-04T06:25:08.714Z,15.9
2017-09-04T06:26:10.836Z,15.9
2017-09-04T06:27:12.947Z,16.1
2017-09-04T06:28:15.376Z,16.4
2017-09-04T06:29:17.455Z,16.6
2017-09-04T06:30:19.592Z,16.2
2017-09-04T06:31:21.754Z,16.3
2017-09-04T06:32:23.868Z,16.1
2017-09-04T06:33:26.346Z,16.2
2017-09-04T06:34:28.478Z,16.2
2017-09-04T06:35:30.561Z,16.5
2017-09-04T06:36:32.702Z,16.9
2017-09-04T06:37:34.825Z,17
2017-09-04T06:38:37.419Z,16.7
2017-09-04T06:39:39.585Z,16.7
2017-09-04T06:40:41.669Z,16.9
2017-09-04T06:41:43.847Z,16.9
2017-09-04T06:42:46.014Z,17
2017-09-04T06:43:48.603Z,17.2
2017-09-04T06:44:50.775Z,17
2017-09-04T06:45:52.954Z,16.9
2017-09-04T06:46:55.088Z,16.8
2017-09-04T06:47:57.306Z,16.6
2017-09-04T06:48:59.667Z,17
2017-09-04T06:50:01.841Z,17.2
2017-09-04T06:51:03.971Z,17.2
2017-09-04T06:52:06.117Z,17.2
2017-09-04T06:53:08.247Z,17.1
2017-09-04T06:54:10.739Z,17.2
2017-09-04T06:55:12.893Z,16.9
2017-09-04T06:56:15.063Z,17
2017-09-04T06:57:17.269Z,17.3
2017-09-04T06:58:19.422Z,16.8
2017-09-04T06:59:21.780Z,16.8
2017-09-04T07:00:23.947Z,16.6
2017-09-04T07:01:26.041Z,16.6
2017-09-04T07:02:28.209Z,16.5
2017-09-04T07:03:30.425Z,16.6
2017-09-04T07:04:32.994Z,16.7
2017-09-04T07:05:35.265Z,16.8
2017-09-04T07:06:37.441Z,16.9
2017-09-04T07:07:39.641Z,16.5
2017-09-04T07:08:42.006Z,16.8
2017-09-04T07:09:44.417Z,17
2017-09-04T07:10:46.564Z,17.2
2017-09-04T07:11:48.776Z,17.2
2017-09-04T07:12:50.937Z,17.2
2017-09-04T07:13:53.050Z,17.4
2017-09-04T07:14:55.507Z,17.3
2017-09-04T07:15:57.712Z,17.3
2017-09-04T07:16:59.930Z,17.6
2017-09-04T07:18:02.072Z,17.6
2017-09-04T07:19:04.403Z,17.4
2017-09-04T07:20:06.778Z,17.6
2017-09-04T07:21:08.880Z,17.5
2017-09-04T07:22:11.159Z,17.3
2017-09-04T07:23:13.334Z,17.5
2017-09-04T07:24:15.570Z,17.6
2017-09-04T07:25:18.145Z,17.4
2017-09-04T07:26:20.611Z,17.8
2017-09-04T07:27:22.877Z,17.9
2017-09-04T07:28:25.006Z,18.1
2017-09-04T07:29:27.096Z,18.1
2017-09-04T07:30:29.505Z,17.7
2017-09-04T07:31:31.685Z,18
2017-09-04T07:32:33.807Z,18.2
2017-09-04T07:33:35.896Z,18.4
2017-09-04T07:34:38.016Z,18.6
2017-09-04T07:35:40.430Z,18.5
2017-09-04T07:36:42.631Z,18.4
2017-09-04T07:37:44.775Z,18.9
2017-09-04T07:38:46.894Z,18.6
2017-09-04T07:39:49.052Z,18.6
2017-09-04T07:40:51.557Z,18.8
2017-09-04T07:41:54.024Z,19.1
2017-09-04T07:42:56.377Z,19.1
2017-09-04T07:43:58.598Z,19
2017-09-04T07:45:00.894Z,18.9
2017-09-04T07:46:03.316Z,19.1
2017-09-04T07:47:05.481Z,19.2
2017-09-04T07:48:07.562Z,19.2
2017-09-04T07:49:09.675Z,19.1
2017-09-04T07:50:11.845Z,19.1
2017-09-04T07:51:14.269Z,19.4
2017-09-04T07:52:16.395Z,19.4
2017-09-04T07:53:18.583Z,19.3
2017-09-04T07:54:20.739Z,18.8
2017-09-04T07:55:22.937Z,18.6
2017-09-04T07:56:25.077Z,18.9
2017-09-04T07:57:27.212Z,19.5
2017-09-04T07:58:29.378Z,19.2
2017-09-04T07:59:31.500Z,19.4
2017-09-04T08:00:33.614Z,19.6
2017-09-04T08:01:35.701Z,19.5
2017-09-04T08:02:37.766Z,19.7
2017-09-04T08:03:39.969Z,19.7
2017-09-04T08:04:42.123Z,20
2017-09-04T08:05:44.203Z,19.8
2017-09-04T08:06:46.341Z,20.2
2017-09-04T08:07:48.489Z,19.9
2017-09-04T08:08:50.616Z,20.3
2017-09-04T08:09:52.738Z,20
2017-09-04T08:10:54.878Z,20
2017-09-04T08:11:57.250Z,20.1
2017-09-04T08:12:59.348Z,20.1
2017-09-04T08:14:01.461Z,20.1
2017-09-04T08:15:03.517Z,20.5
2017-09-04T08:16:05.606Z,20.9
2017-09-04T08:17:07.998Z,20.9
2017-09-04T08:18:10.132Z,21.2
2017-09-04T08:19:12.258Z,21.1
2017-09-04T08:20:14.380Z,21.5
2017-09-04T08:21:16.506Z,21.4
2017-09-04T08:22:18.875Z,21.1
2017-09-04T08:23:21.001Z,21.1
2017-09-04T08:24:23.126Z,21.5
2017-09-04T08:25:25.334Z,21.8
2017-09-04T08:26:27.396Z,21.9
2017-09-04T08:27:29.797Z,21.8
2017-09-04T08:28:31.975Z,21.8
2017-09-04T08:29:34.063Z,22
2017-09-04T08:30:36.140Z,21.8
2017-09-04T08:31:38.293Z,21.9
2017-09-04T08:32:40.697Z,22
2017-09-04T08:33:42.916Z,21.5
2017-09-04T08:34:45.042Z,21.2
2017-09-04T08:35:47.160Z,21.6
2017-09-04T08:36:49.297Z,21.7
2017-09-04T08:37:51.672Z,22
2017-09-04T08:38:53.818Z,22.1
2017-09-04T08:39:55.913Z,22.2
2017-09-04T08:40:58.100Z,22.1
2017-09-04T08:42:00.265Z,22
2017-09-04T08:43:02.765Z,22
2017-09-04T08:44:04.975Z,22.6
2017-09-04T08:45:07.088Z,23
2017-09-04T08:46:09.132Z,23.5
2017-09-04T08:47:11.320Z,24.1
2017-09-04T08:48:13.901Z,24.3
2017-09-04T08:49:16.021Z,24.1
2017-09-04T08:50:18.176Z,24.3
2017-09-04T08:51:20.232Z,24.5
2017-09-04T08:52:22.311Z,24.6
2017-09-04T08:53:24.704Z,25
2017-09-04T08:54:26.850Z,25.6
2017-09-04T08:55:28.956Z,25.9
2017-09-04T08:56:31.118Z,26
2017-09-04T08:57:33.225Z,25.6
2017-09-04T08:58:35.634Z,25.9
2017-09-04T08:59:37.769Z,25.5
2017-09-04T09:00:39.910Z,25.7
2017-09-04T09:01:42.029Z,25.7
2017-09-04T09:02:44.171Z,25.5
2017-09-04T09:03:46.573Z,25.6
2017-09-04T09:04:48.808Z,26.4
2017-09-04T09:05:50.954Z,26.3
2017-09-04T09:06:53.076Z,26.5
2017-09-04T09:07:55.203Z,26.3
2017-09-04T09:08:57.607Z,26.6
2017-09-04T09:09:59.803Z,26.7
2017-09-04T09:11:01.913Z,26.6
2017-09-04T09:12:04.021Z,27
2017-09-04T09:13:06.127Z,26.8
2017-09-04T09:14:08.617Z,26.7
2017-09-04T09:15:10.762Z,27
2017-09-04T09:16:12.846Z,26.8
2017-09-04T09:17:14.947Z,26.6
2017-09-04T09:18:17.032Z,26.3
2017-09-04T09:19:19.402Z,26.3
2017-09-04T09:20:21.497Z,26.3
2017-09-04T09:21:23.661Z,26.7
2017-09-04T09:22:25.786Z,27.1
2017-09-04T09:23:28.115Z,27.6
2017-09-04T09:24:30.602Z,27.5
2017-09-04T09:25:32.746Z,26.5
2017-09-04T09:26:34.814Z,26.9
2017-09-04T09:27:36.969Z,27.5
2017-09-04T09:28:39.010Z,27.1
2017-09-04T09:29:41.449Z,27.4
2017-09-04T09:30:43.738Z,27.4
2017-09-04T09:31:45.833Z,28
2017-09-04T09:32:48.058Z,27.6
2017-09-04T09:33:50.212Z,28.5
2017-09-04T09:34:52.539Z,27.4
2017-09-04T09:35:54.620Z,27.2
2017-09-04T09:36:56.826Z,28
2017-09-04T09:37:58.934Z,28.1
2017-09-04T09:39:01.033Z,26.6
2017-09-04T09:40:03.343Z,27
2017-09-04T09:41:05.464Z,27
2017-09-04T09:42:07.613Z,27.4
2017-09-04T09:43:09.725Z,27.7
2017-09-04T09:44:11.810Z,28.4
2017-09-04T09:45:14.253Z,28.5
2017-09-04T09:46:16.395Z,28.4
2017-09-04T09:47:18.562Z,28.1
2017-09-04T09:48:20.734Z,27.2
2017-09-04T09:49:22.875Z,28
2017-09-04T09:50:25.370Z,28.1
2017-09-04T09:51:27.594Z,28.1
2017-09-04T09:52:29.747Z,28.5
2017-09-04T09:53:31.845Z,29
2017-09-04T09:54:34.013Z,28
2017-09-04T09:55:36.336Z,27.2
2017-09-04T09:56:38.523Z,28.8
2017-09-04T09:57:40.669Z,29
2017-09-04T09:58:42.822Z,29
2017-09-04T09:59:45.745Z,29.4
2017-09-04T10:00:48.298Z,29
2017-09-04T10:01:50.400Z,28.9
2017-09-04T10:02:52.533Z,29
2017-09-04T10:03:54.630Z,29.2
2017-09-04T10:04:56.831Z,29.4
2017-09-04T10:05:59.144Z,30
2017-09-04T10:07:01.240Z,26.5
2017-09-04T10:08:03.368Z,24.5
2017-09-04T10:09:05.508Z,27.1
2017-09-04T10:10:07.627Z,26.9
2017-09-04T10:11:10.148Z,28.5
2017-09-04T10:12:12.330Z,27.4
2017-09-04T10:13:14.407Z,26.8
2017-09-04T10:14:17.239Z,27.5
2017-09-04T10:15:19.299Z,26.4
2017-09-04T10:16:21.665Z,24.9
2017-09-04T10:17:23.778Z,23.1
2017-09-04T10:18:25.906Z,23.1
2017-09-04T10:19:28.219Z,23
2017-09-04T10:20:30.584Z,23.8
2017-09-04T10:21:33.179Z,24.6
2017-09-04T10:22:35.387Z,24.4
2017-09-04T10:23:37.590Z,24.5
2017-09-04T10:24:39.703Z,24.5
2017-09-04T10:25:41.889Z,23.9
2017-09-04T10:26:44.357Z,24.2
2017-09-04T10:27:46.488Z,24.5
2017-09-04T10:28:48.663Z,24
2017-09-04T10:29:50.714Z,23.8
2017-09-04T10:30:52.877Z,23.3
2017-09-04T10:31:54.979Z,22.8
2017-09-04T10:32:57.046Z,22.3
2017-09-04T10:33:59.221Z,22.3
2017-09-04T10:35:01.432Z,22
2017-09-04T10:36:03.675Z,21.8
2017-09-04T10:37:06.106Z,22.3
2017-09-04T10:38:08.268Z,22.8
2017-09-04T10:39:10.373Z,23
2017-09-04T10:40:12.508Z,23.2
2017-09-04T10:41:14.621Z,22.5
2017-09-04T10:42:17.054Z,22.7
2017-09-04T10:43:19.194Z,21.9
2017-09-04T10:44:21.254Z,22
2017-09-04T10:45:23.416Z,22.3
2017-09-04T10:46:25.523Z,22.2
2017-09-04T10:47:27.969Z,22.9
2017-09-04T10:48:30.019Z,23.1
2017-09-04T10:49:32.109Z,23.2
2017-09-04T10:50:34.221Z,23.3
2017-09-04T10:51:36.288Z,23.3
2017-09-04T10:52:38.708Z,23.3
2017-09-04T10:53:40.776Z,22.7
2017-09-04T10:54:42.876Z,22.2
2017-09-04T10:55:44.939Z,21.9
2017-09-04T10:56:47.010Z,21.9
2017-09-04T10:57:49.458Z,21.6
2017-09-04T10:58:51.558Z,21.5
2017-09-04T10:59:53.699Z,21.5
2017-09-04T11:00:55.780Z,22.4
2017-09-04T11:01:57.873Z,22.5
2017-09-04T11:03:00.254Z,22.9
2017-09-04T11:04:02.370Z,22.9
2017-09-04T11:05:04.449Z,22.7
2017-09-04T11:06:06.678Z,23.1
2017-09-04T11:07:09.134Z,22.8
2017-09-04T11:08:11.633Z,22.8
2017-09-04T11:09:13.766Z,22.1
2017-09-04T11:10:15.871Z,22.4
2017-09-04T11:11:18.078Z,22.9
2017-09-04T11:12:20.175Z,23.2
2017-09-04T11:13:22.665Z,23.1
2017-09-04T11:14:24.783Z,23
2017-09-04T11:15:26.967Z,23.7
2017-09-04T11:16:29.136Z,23.3
2017-09-04T11:17:31.182Z,23
2017-09-04T11:18:33.616Z,22.8
2017-09-04T11:19:35.821Z,22.5
2017-09-04T11:20:37.939Z,22.5
2017-09-04T11:21:40.028Z,22.3
2017-09-04T11:22:42.187Z,22
2017-09-04T11:23:45.031Z,22
2017-09-04T11:24:47.239Z,21.8
2017-09-04T11:25:49.399Z,21.8
2017-09-04T11:26:51.590Z,21.7
2017-09-04T11:27:53.858Z,21.7
2017-09-04T11:28:56.397Z,21.6
2017-09-04T11:29:58.750Z,21.5
2017-09-04T11:31:00.873Z,21.6
2017-09-04T11:32:02.994Z,22
2017-09-04T11:33:05.114Z,22.1
2017-09-04T11:34:07.589Z,22
2017-09-04T11:35:09.669Z,21.5
2017-09-04T11:36:11.717Z,21.6
2017-09-04T11:37:13.872Z,21.9
2017-09-04T11:38:15.988Z,22.2
2017-09-04T11:39:18.401Z,22.8
2017-09-04T11:40:20.545Z,22.9
2017-09-04T11:41:22.661Z,22.4
2017-09-04T11:42:24.763Z,22.2
2017-09-04T11:43:26.873Z,22.3
2017-09-04T11:44:29.298Z,22.5
2017-09-04T11:45:31.359Z,22.6
2017-09-04T11:46:33.471Z,22.5
2017-09-04T11:47:35.644Z,22.2
2017-09-04T11:48:37.773Z,22
2017-09-04T11:49:40.159Z,21.8
2017-09-04T11:50:42.239Z,21.8
2017-09-04T11:51:44.351Z,21.4
2017-09-04T11:52:46.474Z,21.2
2017-09-04T11:53:48.559Z,21.5
2017-09-04T11:54:50.902Z,21.3
2017-09-04T11:55:53.043Z,21.2
2017-09-04T11:56:55.116Z,21
2017-09-04T11:57:57.183Z,21
2017-09-04T11:58:59.340Z,21
2017-09-04T12:00:01.888Z,21.5
2017-09-04T12:01:03.963Z,21.8
2017-09-04T12:02:06.087Z,21.5
2017-09-04T12:03:08.197Z,21.3
2017-09-04T12:04:10.388Z,21.9
2017-09-04T12:05:12.976Z,21.6
2017-09-04T12:06:15.396Z,21.4
2017-09-04T12:07:17.625Z,21.3
2017-09-04T12:08:19.804Z,21.2
2017-09-04T12:09:21.906Z,21
2017-09-04T12:10:24.278Z,21.2
2017-09-04T12:11:26.421Z,21.2
2017-09-04T12:12:28.551Z,21.5
2017-09-04T12:13:30.614Z,21.9
2017-09-04T12:14:32.739Z,22.2
2017-09-04T12:15:35.144Z,22.1
2017-09-04T12:16:37.247Z,22
2017-09-04T12:17:39.397Z,22
2017-09-04T12:18:41.537Z,22
2017-09-04T12:19:43.612Z,21.9
2017-09-04T12:20:46.019Z,21.7
2017-09-04T12:21:48.121Z,21.3
2017-09-04T12:22:50.195Z,21.4
2017-09-04T12:23:52.281Z,21.6
2017-09-04T12:24:54.482Z,21.5
2017-09-04T12:25:57.022Z,21.8
2017-09-04T12:26:59.333Z,21.5
2017-09-04T12:28:01.456Z,21.1
2017-09-04T12:29:03.579Z,21.1
2017-09-04T12:30:05.679Z,21.4
2017-09-04T12:31:07.921Z,21.6
2017-09-04T12:32:10.164Z,21.9
2017-09-04T12:33:12.347Z,22
2017-09-04T12:34:14.526Z,22.2
2017-09-04T12:35:16.594Z,22.6
2017-09-04T12:36:18.701Z,22.9
2017-09-04T12:37:20.793Z,23.1
2017-09-04T12:38:22.976Z,23.5
2017-09-04T12:39:25.117Z,23.6
2017-09-04T12:40:27.328Z,23.7
2017-09-04T12:41:29.505Z,23.8
2017-09-04T12:42:31.672Z,23.9
2017-09-04T12:43:33.784Z,23.9
2017-09-04T12:44:35.970Z,24
2017-09-04T12:45:38.145Z,24
2017-09-04T12:46:40.341Z,24
2017-09-04T12:47:42.539Z,23.4
2017-09-04T12:48:44.637Z,22.9
2017-09-04T12:49:46.865Z,22.8
2017-09-04T12:50:49.050Z,23.4
2017-09-04T12:51:51.189Z,23.7
2017-09-04T12:52:53.386Z,23.4
2017-09-04T12:53:55.480Z,23.6
2017-09-04T12:54:57.573Z,23.9
2017-09-04T12:55:59.714Z,24
2017-09-04T12:57:01.810Z,24.2
2017-09-04T12:58:03.872Z,24.3
2017-09-04T12:59:06.062Z,24.3
2017-09-04T13:00:08.173Z,23.7
2017-09-04T13:01:10.488Z,24
2017-09-04T13:02:12.885Z,24.1
2017-09-04T13:03:15.217Z,24
2017-09-04T13:04:17.337Z,23.7
2017-09-04T13:05:19.419Z,23.7
2017-09-04T13:06:21.502Z,23.4
2017-09-04T13:07:23.935Z,23.5
2017-09-04T13:08:26.035Z,23.6
2017-09-04T13:09:28.185Z,23.6
2017-09-04T13:10:30.290Z,23.2
2017-09-04T13:11:32.393Z,23.3
2017-09-04T13:12:34.873Z,23.7
2017-09-04T13:13:37.044Z,23.9
2017-09-04T13:14:39.206Z,23.7
2017-09-04T13:15:41.388Z,23.5
2017-09-04T13:16:43.499Z,23.3
2017-09-04T13:17:45.941Z,23.6
2017-09-04T13:18:48.083Z,23.8
2017-09-04T13:19:50.181Z,23.3
2017-09-04T13:20:52.289Z,23.5
2017-09-04T13:21:54.388Z,23.6
2017-09-04T13:22:56.774Z,23.3
2017-09-04T13:23:58.948Z,23.3
2017-09-04T13:25:01.075Z,23.1
2017-09-04T13:26:03.301Z,22.9
2017-09-04T13:27:13.511Z,23.3
2017-09-04T13:28:20.623Z,23.5
2017-09-04T13:29:22.807Z,23.7
2017-09-04T13:30:24.989Z,23.8
2017-09-04T13:31:27.143Z,23.9
2017-09-04T13:32:29.299Z,23.8
2017-09-04T13:33:31.791Z,23.3
2017-09-04T13:34:33.861Z,23.4
2017-09-04T13:35:36.164Z,23.7
2017-09-04T13:36:38.327Z,23.7
2017-09-04T13:37:40.480Z,23.7
2017-09-04T13:38:42.892Z,23.5
2017-09-04T13:39:45.025Z,23.6
2017-09-04T13:40:47.162Z,23.7
2017-09-04T13:41:49.322Z,23.8
2017-09-04T13:42:51.446Z,23.6
2017-09-04T13:43:53.850Z,23.7
2017-09-04T13:44:55.988Z,23.9
2017-09-04T13:45:58.153Z,23.9
2017-09-04T13:47:00.276Z,23.5
2017-09-04T13:48:02.424Z,23.5
2017-09-04T13:49:04.855Z,23.1
2017-09-04T13:50:07.054Z,23
2017-09-04T13:51:09.150Z,23.1
2017-09-04T13:52:11.336Z,23
2017-09-04T13:53:13.483Z,22.9
2017-09-04T13:54:15.918Z,23.1
2017-09-04T13:55:17.999Z,23.5
2017-09-04T13:56:20.157Z,23.6